createdAt,value
2022-08-10T00:01:51.437Z,3.90
2022-08-10T00:04:21.485Z,4.00
2022-08-10T00:06:49.567Z,3.90
2022-08-10T00:09:16.709Z,4.10
2022-08-10T00:11:43.909Z,3.93
2022-08-10T00:14:11.062Z,3.70
2022-08-10T00:16:38.324Z,3.60
2022-08-10T00:19:05.438Z,3.37
2022-08-10T00:21:32.645Z,3.73
2022-08-10T00:23:59.859Z,3.57
2022-08-10T00:26:27.018Z,3.20
2022-08-10T00:29:14.185Z,3.07
2022-08-10T00:31:57.865Z,3.00
2022-08-10T00:34:26.879Z,2.90
2022-08-10T00:36:54.027Z,2.90
2022-08-10T00:39:21.230Z,2.70
2022-08-10T00:42:07.171Z,2.70
2022-08-10T00:44:39.431Z,2.33
2022-08-10T00:47:07.365Z,2.43
2022-08-10T00:49:48.388Z,2.53
2022-08-10T00:52:17.096Z,2.33
2022-08-10T00:54:45.054Z,2.40
2022-08-10T00:57:12.991Z,2.40
2022-08-10T00:59:59.455Z,2.40
2022-08-10T01:02:32.431Z,2.30
2022-08-10T01:05:02.459Z,2.60
2022-08-10T01:07:29.981Z,2.50
2022-08-10T01:10:09.345Z,2.70
2022-08-10T01:12:44.824Z,2.33
2022-08-10T01:15:12.020Z,2.00
2022-08-10T01:17:51.693Z,2.20
2022-08-10T01:20:30.301Z,2.13
2022-08-10T01:22:58.414Z,2.20
2022-08-10T01:26:12.329Z,2.30
2022-08-10T01:28:31.980Z,2.20
2022-08-10T01:31:01.530Z,2.00
2022-08-10T01:34:02.092Z,2.20
2022-08-10T01:36:31.891Z,2.20
2022-08-10T01:39:00.895Z,2.10
2022-08-10T01:41:54.474Z,2.00
2022-08-10T01:44:29.079Z,2.30
2022-08-10T01:47:22.266Z,2.50
2022-08-10T01:49:50.643Z,2.43
2022-08-10T01:52:19.371Z,2.20
2022-08-10T01:54:47.252Z,2.43
2022-08-10T01:57:17.277Z,2.40
2022-08-10T02:00:00.603Z,2.60
2022-08-10T02:02:30.826Z,2.43
2022-08-10T02:04:58.822Z,2.53
2022-08-10T02:07:27.684Z,2.50
2022-08-10T02:09:57.150Z,2.67
2022-08-10T02:12:30.966Z,2.90
2022-08-10T02:15:00.692Z,2.90
2022-08-10T02:17:59.356Z,2.80
2022-08-10T02:20:17.913Z,2.83
2022-08-10T02:22:46.325Z,2.73
2022-08-10T02:25:40.044Z,2.90
2022-08-10T02:28:02.910Z,3.20
2022-08-10T02:30:30.739Z,3.00
2022-08-10T02:32:58.807Z,3.53
2022-08-10T02:35:29.147Z,3.37
2022-08-10T02:38:16.104Z,3.53
2022-08-10T02:45:01.928Z,3.43
2022-08-10T02:45:23.749Z,3.40
2022-08-10T02:46:42.519Z,3.50
2022-08-10T02:49:12.612Z,3.93
2022-08-10T02:52:07.475Z,3.90
2022-08-10T02:54:37.912Z,3.77
2022-08-10T02:57:20.092Z,3.90
2022-08-10T02:59:49.976Z,4.13
2022-08-10T03:02:20.645Z,4.00
2022-08-10T03:04:56.120Z,4.00
2022-08-10T03:07:42.819Z,4.00
2022-08-10T03:10:14.646Z,3.97
2022-08-10T03:12:43.219Z,3.80
2022-08-10T03:15:15.849Z,4.07
2022-08-10T03:17:57.930Z,4.20
2022-08-10T03:20:38.273Z,4.30
2022-08-10T03:23:08.045Z,4.30
2022-08-10T03:25:35.672Z,4.10
2022-08-10T03:28:03.019Z,4.50
2022-08-10T03:30:33.454Z,4.13
2022-08-10T03:33:02.001Z,4.50
2022-08-10T03:35:29.789Z,4.67
2022-08-10T03:37:59.790Z,4.63
2022-08-10T03:40:44.840Z,4.60
2022-08-10T03:43:16.466Z,4.60
2022-08-10T03:45:54.246Z,4.73
2022-08-10T03:48:23.862Z,5.30
2022-08-10T03:50:52.862Z,5.30
2022-08-10T03:53:24.940Z,5.27
2022-08-10T03:56:28.333Z,5.27
2022-08-10T03:58:55.618Z,5.23
2022-08-10T04:02:46.582Z,5.93
2022-08-10T04:04:12.958Z,6.10
2022-08-10T04:06:41.836Z,6.90
2022-08-10T04:09:10.097Z,7.00
2022-08-10T04:11:37.326Z,6.73
2022-08-10T04:14:07.947Z,6.33
2022-08-10T04:16:55.119Z,6.80
2022-08-10T04:19:23.187Z,6.87
2022-08-10T04:21:55.547Z,6.43
2022-08-10T04:24:26.939Z,6.10
2022-08-10T04:26:58.586Z,5.57
2022-08-10T04:29:25.819Z,5.00
2022-08-10T04:31:53.885Z,4.90
2022-08-10T04:34:21.373Z,5.00
2022-08-10T04:36:50.528Z,5.40
2022-08-10T04:39:18.371Z,5.10
2022-08-10T04:41:47.469Z,5.03
2022-08-10T04:44:15.045Z,5.23
2022-08-10T04:46:55.287Z,5.27
2022-08-10T04:49:54.017Z,4.90
2022-08-10T04:52:11.991Z,4.87
2022-08-10T04:54:39.213Z,5.50
2022-08-10T04:57:06.549Z,5.10
2022-08-10T04:59:33.699Z,4.83
2022-08-10T05:02:22.434Z,4.93
2022-08-10T05:04:48.000Z,5.20
2022-08-10T05:07:18.164Z,5.00
2022-08-10T05:10:03.402Z,4.77
2022-08-10T05:12:35.623Z,4.77
2022-08-10T05:15:04.683Z,4.97
2022-08-10T05:17:31.882Z,4.00
2022-08-10T05:20:04.120Z,3.77
2022-08-10T05:22:33.825Z,3.77
2022-08-10T05:25:01.061Z,3.57
2022-08-10T05:27:28.233Z,3.90
2022-08-10T05:30:02.162Z,3.77
2022-08-10T05:32:30.478Z,3.90
2022-08-10T05:34:57.832Z,3.60
2022-08-10T05:38:09.086Z,3.20
2022-08-10T05:40:13.055Z,3.40
2022-08-10T05:42:40.478Z,3.30
2022-08-10T05:45:10.234Z,3.97
2022-08-10T05:48:54.222Z,4.20
2022-08-10T05:50:26.884Z,3.43
2022-08-10T05:52:54.194Z,3.70
2022-08-10T05:55:21.882Z,3.50
2022-08-10T05:57:49.068Z,3.27
2022-08-10T06:00:36.843Z,3.70
2022-08-10T06:03:08.598Z,3.90
2022-08-10T06:05:39.863Z,3.57
2022-08-10T06:08:13.301Z,3.67
2022-08-10T06:12:21.912Z,3.87
2022-08-10T06:13:59.613Z,3.77
2022-08-10T06:16:35.263Z,3.60
2022-08-10T06:19:03.721Z,3.60
2022-08-10T06:21:30.944Z,3.40
2022-08-10T06:23:59.993Z,3.30
2022-08-10T06:26:27.106Z,3.40
2022-08-10T06:29:04.222Z,3.20
2022-08-10T06:31:47.021Z,3.43
2022-08-10T06:34:16.904Z,3.60
2022-08-10T06:36:45.158Z,3.20
2022-08-10T06:39:32.323Z,2.90
2022-08-10T06:42:16.370Z,3.37
2022-08-10T06:44:53.731Z,3.00
2022-08-10T06:47:23.769Z,3.10
2022-08-10T06:49:53.124Z,2.97
2022-08-10T06:52:20.833Z,3.17
2022-08-10T06:54:48.743Z,3.00
2022-08-10T06:57:18.449Z,3.10
2022-08-10T06:59:48.838Z,3.37
2022-08-10T07:02:20.306Z,3.30
2022-08-10T07:04:49.444Z,3.47
2022-08-10T07:07:19.092Z,2.90
2022-08-10T07:09:46.665Z,3.17
2022-08-10T07:12:15.514Z,3.00
2022-08-10T07:14:45.579Z,3.20
2022-08-10T07:17:15.166Z,3.10
2022-08-10T07:19:50.022Z,3.13
2022-08-10T07:23:55.078Z,2.90
2022-08-10T07:25:08.243Z,3.10
2022-08-10T07:27:58.832Z,3.10
2022-08-10T07:30:23.023Z,3.13
2022-08-10T07:32:51.700Z,2.93
2022-08-10T07:35:21.968Z,3.10
2022-08-10T07:37:50.477Z,3.10
2022-08-10T07:40:18.842Z,3.23
2022-08-10T07:42:47.899Z,3.30
2022-08-10T07:45:15.270Z,3.77
2022-08-10T07:47:53.956Z,3.03
2022-08-10T07:50:23.025Z,3.10
2022-08-10T07:52:50.596Z,3.00
2022-08-10T07:55:19.090Z,3.10
2022-08-10T07:58:06.701Z,3.00
2022-08-10T08:00:34.578Z,2.90
2022-08-10T08:03:03.013Z,3.10
2022-08-10T08:05:59.376Z,3.00
2022-08-10T08:08:19.052Z,3.20
2022-08-10T08:10:47.609Z,2.87
2022-08-10T08:13:15.604Z,3.00
2022-08-10T08:16:15.889Z,3.27
2022-08-10T08:18:32.254Z,3.17
2022-08-10T08:21:16.113Z,2.87
2022-08-10T08:24:14.787Z,3.50
2022-08-10T08:26:39.748Z,3.57
2022-08-10T08:29:09.357Z,3.10
2022-08-10T08:31:36.713Z,3.10
2022-08-10T08:34:21.751Z,3.33
2022-08-10T08:36:50.030Z,3.30
2022-08-10T08:39:17.333Z,3.00
2022-08-10T08:41:59.982Z,2.73
2022-08-10T08:44:50.272Z,3.27
2022-08-10T08:48:04.961Z,3.07
2022-08-10T08:50:15.482Z,3.17
2022-08-10T08:52:48.671Z,2.90
2022-08-10T08:56:03.091Z,3.13
2022-08-10T08:58:41.098Z,2.80
2022-08-10T09:01:38.299Z,2.80
2022-08-10T09:04:20.027Z,3.00
2022-08-10T09:07:59.114Z,3.00
2022-08-10T09:10:15.420Z,2.90
2022-08-10T09:12:52.733Z,2.33
2022-08-10T09:15:39.488Z,2.57
2022-08-10T09:18:24.653Z,2.60
2022-08-10T09:20:59.355Z,2.60
2022-08-10T09:24:04.262Z,2.77
2022-08-10T09:26:21.036Z,2.57
2022-08-10T09:28:52.461Z,2.50
2022-08-10T09:32:56.004Z,2.57
2022-08-10T09:36:20.308Z,2.90
2022-08-10T09:38:01.176Z,3.10
2022-08-10T09:40:59.526Z,3.10
2022-08-10T09:43:46.996Z,3.10
2022-08-10T09:46:27.275Z,3.00
2022-08-10T09:49:10.730Z,2.97
2022-08-10T09:51:45.746Z,2.72
2022-08-10T09:54:16.707Z,3.03
2022-08-10T09:56:46.624Z,3.10
2022-08-10T09:59:27.069Z,3.20
2022-08-10T10:02:08.392Z,3.00
2022-08-10T10:04:38.289Z,2.90
2022-08-10T10:07:06.956Z,3.00
2022-08-10T10:09:48.545Z,2.72
2022-08-10T10:12:18.772Z,4.10
2022-08-10T10:15:25.325Z,2.70
2022-08-10T10:18:11.550Z,2.60
2022-08-10T10:20:54.077Z,2.80
2022-08-10T10:23:30.078Z,2.90
2022-08-10T10:26:04.963Z,2.85
2022-08-10T10:29:11.402Z,2.80
2022-08-10T10:31:22.827Z,3.45
2022-08-10T10:33:55.049Z,3.00
2022-08-10T10:36:22.828Z,2.90
2022-08-10T10:38:50.626Z,2.90
2022-08-10T10:41:30.810Z,2.92
2022-08-10T10:44:21.753Z,2.50
2022-08-10T10:46:58.959Z,2.60
2022-08-10T10:49:34.007Z,2.28
2022-08-10T10:52:05.577Z,2.38
2022-08-10T10:54:45.686Z,2.60
2022-08-10T10:57:12.793Z,2.50
2022-08-10T10:59:58.650Z,2.45
2022-08-10T11:02:28.787Z,2.60
2022-08-10T11:05:04.856Z,2.60
2022-08-10T11:07:45.922Z,2.70
2022-08-10T11:10:33.221Z,2.40
2022-08-10T11:14:24.651Z,2.22
2022-08-10T11:16:20.975Z,2.60
2022-08-10T11:18:57.518Z,2.40
2022-08-10T11:21:28.308Z,2.33
2022-08-10T11:24:48.930Z,2.35
2022-08-10T11:27:09.735Z,2.78
2022-08-10T11:29:52.436Z,2.83
2022-08-10T11:32:20.396Z,2.50
2022-08-10T11:35:11.673Z,2.55
2022-08-10T11:38:30.351Z,2.10
2022-08-10T11:40:50.367Z,2.50
2022-08-10T11:43:24.168Z,2.50
2022-08-10T11:45:56.983Z,2.28
2022-08-10T11:48:52.833Z,2.58
2022-08-10T11:51:20.099Z,2.30
2022-08-10T11:54:06.050Z,2.40
2022-08-10T11:56:53.029Z,2.33
2022-08-10T11:59:41.532Z,2.45
2022-08-10T12:02:10.044Z,2.40
2022-08-10T12:04:39.772Z,2.20
2022-08-10T12:08:54.872Z,2.20
2022-08-10T12:10:09.738Z,2.20
2022-08-10T12:12:45.420Z,2.30
2022-08-10T12:15:16.754Z,2.22
2022-08-10T12:17:46.732Z,2.17
2022-08-10T12:20:22.177Z,2.22
2022-08-10T12:22:51.285Z,1.98
2022-08-10T12:25:55.970Z,2.30
2022-08-10T12:28:50.573Z,2.10
2022-08-10T12:31:21.999Z,2.50
2022-08-10T12:34:01.867Z,2.40
2022-08-10T12:36:34.449Z,2.25
2022-08-10T12:39:13.101Z,2.70
2022-08-10T12:41:44.367Z,2.42
2022-08-10T12:44:15.507Z,2.35
2022-08-10T12:46:51.178Z,2.40
2022-08-10T12:49:31.415Z,2.63
2022-08-10T12:52:10.348Z,2.03
2022-08-10T12:54:38.069Z,2.50
2022-08-10T12:57:05.251Z,2.50
2022-08-10T12:59:32.965Z,2.22
2022-08-10T13:02:12.716Z,2.20
2022-08-10T13:04:41.035Z,2.25
2022-08-10T13:07:08.700Z,2.15
2022-08-10T13:09:55.976Z,2.15
2022-08-10T13:12:36.970Z,2.33
2022-08-10T13:15:45.265Z,2.17
2022-08-10T13:18:05.706Z,2.10
2022-08-10T13:20:45.792Z,2.60
2022-08-10T13:23:14.919Z,2.33
2022-08-10T13:25:45.444Z,2.20
2022-08-10T13:28:35.424Z,2.50
2022-08-10T13:31:06.167Z,2.25
2022-08-10T13:34:39.289Z,2.40
2022-08-10T13:36:22.930Z,2.50
2022-08-10T13:38:50.869Z,2.30
2022-08-10T13:41:19.112Z,2.22
2022-08-10T13:43:53.020Z,2.22
2022-08-10T13:46:22.949Z,2.10
2022-08-10T13:48:53.573Z,2.50
2022-08-10T13:51:56.850Z,2.30
2022-08-10T13:54:13.743Z,2.17
2022-08-10T13:56:42.699Z,2.20
2022-08-10T13:59:11.563Z,2.20
2022-08-10T14:01:48.133Z,2.10
2022-08-10T14:04:15.435Z,2.40
2022-08-10T14:06:42.968Z,2.28
2022-08-10T14:09:13.655Z,2.50
2022-08-10T14:11:42.578Z,2.30
2022-08-10T14:14:14.568Z,2.60
2022-08-10T14:16:42.901Z,2.30
2022-08-10T14:19:13.253Z,2.30
2022-08-10T14:21:41.124Z,2.42
2022-08-10T14:24:19.798Z,2.45
2022-08-10T14:26:47.831Z,2.40
2022-08-10T14:29:19.853Z,2.55
2022-08-10T14:32:01.046Z,2.50
2022-08-10T14:34:59.238Z,2.45
2022-08-10T14:37:24.193Z,2.45
2022-08-10T14:39:55.888Z,2.13
2022-08-10T14:42:27.712Z,2.20
2022-08-10T14:44:57.938Z,2.20
2022-08-10T14:47:53.745Z,2.45
2022-08-10T14:50:32.090Z,2.40
2022-08-10T14:53:10.952Z,2.30
2022-08-10T14:55:59.242Z,2.58
2022-08-10T14:58:59.296Z,2.30
2022-08-10T15:02:00.000Z,2.33
2022-08-10T15:04:24.183Z,2.20
2022-08-10T15:06:55.796Z,2.30
2022-08-10T15:09:25.287Z,2.28
2022-08-10T15:12:13.613Z,2.20
2022-08-10T15:14:46.130Z,2.25
2022-08-10T15:17:16.331Z,2.50
2022-08-10T15:20:03.512Z,2.53
2022-08-10T15:22:38.332Z,2.30
2022-08-10T15:25:17.990Z,2.00
2022-08-10T15:27:54.498Z,1.70
2022-08-10T15:30:29.767Z,2.10
2022-08-10T15:33:21.470Z,2.10
2022-08-10T15:36:24.452Z,2.40
2022-08-10T15:38:58.521Z,2.30
2022-08-10T15:41:58.916Z,2.30
2022-08-10T15:44:23.687Z,2.20
2022-08-10T15:46:52.149Z,2.40
2022-08-10T15:49:45.186Z,2.42
2022-08-10T15:52:39.665Z,2.40
2022-08-10T15:55:42.364Z,2.28
2022-08-10T15:58:09.869Z,2.20
2022-08-10T16:00:39.006Z,1.90
2022-08-10T16:03:14.761Z,1.92
2022-08-10T16:06:02.441Z,1.95
2022-08-10T16:08:37.150Z,2.00
2022-08-10T16:11:27.311Z,1.90
2022-08-10T16:14:24.077Z,2.20
2022-08-10T16:16:54.192Z,2.10
2022-08-10T16:19:25.269Z,2.00
2022-08-10T16:21:56.002Z,1.90
2022-08-10T16:24:24.986Z,1.80
2022-08-10T16:26:54.136Z,1.90
2022-08-10T16:29:23.307Z,1.98
2022-08-10T16:31:54.825Z,1.92
2022-08-10T16:34:22.735Z,1.98
2022-08-10T16:36:55.111Z,1.77
2022-08-10T16:39:58.262Z,1.90
2022-08-10T16:42:21.495Z,1.90
2022-08-10T16:44:53.180Z,2.15
2022-08-10T16:47:27.376Z,1.83
2022-08-10T16:49:56.915Z,1.80
2022-08-10T16:52:29.733Z,1.70
2022-08-10T16:55:23.541Z,1.90
2022-08-10T16:57:52.403Z,1.70
2022-08-10T17:00:22.390Z,1.85
2022-08-10T17:02:51.347Z,1.80
2022-08-10T17:06:09.555Z,1.83
2022-08-10T17:08:09.420Z,1.60
2022-08-10T17:10:37.399Z,1.58
2022-08-10T17:13:06.526Z,1.42
2022-08-10T17:15:34.230Z,1.63
2022-08-10T17:18:03.511Z,1.67
2022-08-10T17:20:32.842Z,1.60
2022-08-10T17:23:03.333Z,1.70
2022-08-10T17:25:48.371Z,1.70
2022-08-10T17:28:34.659Z,1.65
2022-08-10T17:31:18.917Z,1.80
2022-08-10T17:33:56.749Z,1.95
2022-08-10T17:36:25.176Z,2.45
2022-08-10T17:38:52.959Z,2.20
2022-08-10T17:41:24.172Z,2.00
2022-08-10T17:44:01.861Z,2.20
2022-08-10T17:46:32.409Z,2.30
2022-08-10T17:49:00.281Z,4.28
2022-08-10T17:51:30.857Z,2.50
2022-08-10T17:53:59.135Z,2.95
2022-08-10T17:56:26.602Z,2.67
2022-08-10T17:58:58.658Z,3.08
2022-08-10T18:01:41.679Z,3.13
2022-08-10T18:04:15.076Z,3.00
2022-08-10T18:06:43.298Z,2.80
2022-08-10T18:09:12.551Z,3.10
2022-08-10T18:11:44.230Z,2.95
2022-08-10T18:14:11.831Z,3.20
2022-08-10T18:16:41.686Z,3.05
2022-08-10T18:19:11.516Z,3.13
2022-08-10T18:21:39.574Z,3.03
2022-08-10T18:24:16.139Z,3.20
2022-08-10T18:26:45.254Z,3.40
2022-08-10T18:29:18.576Z,3.67
2022-08-10T18:31:47.331Z,3.63
2022-08-10T18:34:18.188Z,3.57
2022-08-10T18:36:46.003Z,3.50
2022-08-10T18:39:14.896Z,3.58
2022-08-10T18:42:00.744Z,3.50
2022-08-10T18:44:34.473Z,3.90
2022-08-10T18:47:03.501Z,3.93
2022-08-10T18:49:41.222Z,3.60
2022-08-10T18:52:09.376Z,3.90
2022-08-10T18:54:44.429Z,4.10
2022-08-10T18:57:31.323Z,3.90
2022-08-10T19:00:07.800Z,3.72
2022-08-10T19:02:54.783Z,4.03
2022-08-10T19:05:41.487Z,4.10
2022-08-10T19:08:30.922Z,4.03
2022-08-10T19:11:04.699Z,4.43
2022-08-10T19:13:34.612Z,4.10
2022-08-10T19:16:08.104Z,4.17
2022-08-10T19:18:38.655Z,3.80
2022-08-10T19:21:38.207Z,3.97
2022-08-10T19:24:26.004Z,4.33
2022-08-10T19:26:57.465Z,3.97
2022-08-10T19:30:12.153Z,3.60
2022-08-10T19:32:57.734Z,4.47
2022-08-10T19:36:04.047Z,4.17
2022-08-10T19:38:35.344Z,4.30
2022-08-10T19:41:15.004Z,4.17
2022-08-10T19:44:00.284Z,4.30
2022-08-10T19:46:40.086Z,3.87
2022-08-10T19:49:24.711Z,4.40
2022-08-10T19:52:10.662Z,4.30
2022-08-10T19:54:45.101Z,4.30
2022-08-10T19:57:34.447Z,4.67
2022-08-10T20:00:19.269Z,4.20
2022-08-10T20:03:23.590Z,4.60
2022-08-10T20:06:18.148Z,5.00
2022-08-10T20:09:06.583Z,4.63
2022-08-10T20:11:45.034Z,4.70
2022-08-10T20:14:26.015Z,4.80
2022-08-10T20:16:56.073Z,4.67
2022-08-10T20:19:52.610Z,4.67
2022-08-10T20:22:16.820Z,4.60
2022-08-10T20:25:01.658Z,4.80
2022-08-10T20:28:00.434Z,4.90
2022-08-10T20:30:16.416Z,4.73
2022-08-10T20:32:59.625Z,4.90
2022-08-10T20:35:45.715Z,4.50
2022-08-10T20:38:15.903Z,4.53
2022-08-10T20:40:45.776Z,4.63
2022-08-10T20:43:21.956Z,4.47
2022-08-10T20:46:09.614Z,4.70
2022-08-10T20:48:39.226Z,4.60
2022-08-10T20:51:08.817Z,4.50
2022-08-10T20:53:41.492Z,4.80
2022-08-10T20:56:21.326Z,4.33
2022-08-10T20:59:10.139Z,4.67
2022-08-10T21:02:06.768Z,4.63
2022-08-10T21:04:57.717Z,4.53
2022-08-10T21:07:57.737Z,4.67
2022-08-10T21:10:45.707Z,5.00
2022-08-10T21:13:31.354Z,4.93
2022-08-10T21:16:01.857Z,4.73
2022-08-10T21:18:51.693Z,5.03
2022-08-10T21:21:19.270Z,4.80
2022-08-10T21:24:07.156Z,5.30
2022-08-10T21:26:45.558Z,5.40
2022-08-10T21:29:37.964Z,5.33
2022-08-10T21:32:12.095Z,5.33
2022-08-10T21:34:55.283Z,5.60
2022-08-10T21:37:40.158Z,6.27
2022-08-10T21:40:35.413Z,6.13
2022-08-10T21:43:44.121Z,6.27
2022-08-10T21:46:30.514Z,6.20
2022-08-10T21:49:22.800Z,6.43
2022-08-10T21:52:21.053Z,5.90
2022-08-10T21:55:09.639Z,5.90
2022-08-10T21:58:15.201Z,5.83
2022-08-10T22:01:39.145Z,5.80
2022-08-10T22:04:25.486Z,5.60
2022-08-10T22:07:11.447Z,5.63
2022-08-10T22:10:02.500Z,5.17
2022-08-10T22:12:52.047Z,5.10
2022-08-10T22:16:03.781Z,4.70
2022-08-10T22:19:01.304Z,5.10
2022-08-10T22:22:07.680Z,4.40
2022-08-10T22:25:41.213Z,4.10
2022-08-10T22:28:33.543Z,3.70
2022-08-10T22:31:32.915Z,3.50
2022-08-10T22:34:37.732Z,3.43
2022-08-10T22:37:32.418Z,3.23
2022-08-10T22:40:26.744Z,3.10
2022-08-10T22:43:14.046Z,3.53
2022-08-10T22:46:20.750Z,3.20
2022-08-10T22:49:01.038Z,3.00
2022-08-10T22:51:37.317Z,3.20
2022-08-10T22:54:43.223Z,3.00
2022-08-10T22:57:33.294Z,2.97
2022-08-10T23:00:09.688Z,2.87
2022-08-10T23:02:38.234Z,3.00
2022-08-10T23:05:08.680Z,2.90
2022-08-10T23:07:38.166Z,2.63
2022-08-10T23:10:07.855Z,2.60
2022-08-10T23:12:37.993Z,2.80
2022-08-10T23:15:25.393Z,2.43
2022-08-10T23:18:15.540Z,2.33
2022-08-10T23:20:43.648Z,2.40
2022-08-10T23:23:13.130Z,2.40
2022-08-10T23:25:56.609Z,2.30
2022-08-10T23:28:38.576Z,2.57
2022-08-10T23:31:13.135Z,2.43
2022-08-10T23:33:41.727Z,2.30
2022-08-10T23:36:34.320Z,2.40
2022-08-10T23:39:25.394Z,2.20
2022-08-10T23:41:52.817Z,2.20
2022-08-10T23:44:21.177Z,2.57
2022-08-10T23:46:48.737Z,2.30
2022-08-10T23:49:16.017Z,2.33
2022-08-10T23:51:55.904Z,2.20
2022-08-10T23:54:24.821Z,2.33
2022-08-10T23:56:53.106Z,2.23
2022-08-10T23:59:22.034Z,2.17
